createdAt,value
2018-06-21T00:01:33.079Z,100284.20
2018-06-21T00:04:01.254Z,100287.14
2018-06-21T00:06:29.437Z,100284.44
2018-06-21T00:08:57.594Z,100283.84
2018-06-21T00:11:25.784Z,100286.56
2018-06-21T00:13:53.947Z,100279.48
2018-06-21T00:16:22.112Z,100284.08
2018-06-21T00:18:50.279Z,100278.95
2018-06-21T00:21:18.451Z,100284.11
2018-06-21T00:23:46.635Z,100275.19
2018-06-21T00:26:14.801Z,100270.29
2018-06-21T00:28:42.962Z,100271.41
2018-06-21T00:31:11.135Z,100269.00
2018-06-21T00:33:39.309Z,100268.77
2018-06-21T00:36:07.490Z,100276.89
2018-06-21T00:38:35.638Z,100271.23
2018-06-21T00:41:03.802Z,100268.81
2018-06-21T00:43:32.010Z,100266.63
2018-06-21T00:46:00.174Z,100265.01
2018-06-21T00:48:28.338Z,100256.08
2018-06-21T00:50:56.724Z,100257.72
2018-06-21T00:53:25.031Z,100256.66
2018-06-21T00:56:27.102Z,100251.23
2018-06-21T00:58:55.263Z,100246.66
2018-06-21T01:01:23.446Z,100243.38
2018-06-21T01:03:51.614Z,100244.73
2018-06-21T01:06:19.783Z,100245.28
2018-06-21T01:08:47.959Z,100246.92
2018-06-21T01:11:16.135Z,100243.38
2018-06-21T01:13:44.302Z,100240.67
2018-06-21T01:16:12.538Z,100241.23
2018-06-21T01:18:40.695Z,100237.70
2018-06-21T01:21:08.881Z,100229.85
2018-06-21T01:23:37.042Z,100229.88
2018-06-21T01:26:05.344Z,100226.59
2018-06-21T01:28:33.516Z,100223.11
2018-06-21T01:31:01.687Z,100210.39
2018-06-21T01:33:29.851Z,100214.19
2018-06-21T01:35:58.039Z,100208.23
2018-06-21T01:38:26.206Z,100201.77
2018-06-21T01:40:54.382Z,100204.48
2018-06-21T01:43:22.567Z,100206.37
2018-06-21T01:45:50.747Z,100200.70
2018-06-21T01:48:18.935Z,100196.89
2018-06-21T01:50:47.103Z,100201.22
2018-06-21T01:53:15.258Z,100198.77
2018-06-21T01:55:43.431Z,100188.24
2018-06-21T01:58:11.602Z,100179.30
2018-06-21T02:00:39.807Z,100181.19
2018-06-21T02:03:07.974Z,100176.09
2018-06-21T02:05:36.320Z,100168.74
2018-06-21T02:08:04.510Z,100167.94
2018-06-21T02:10:32.662Z,100169.28
2018-06-21T02:13:00.827Z,100163.02
2018-06-21T02:15:28.996Z,100163.30
2018-06-21T02:17:57.150Z,100155.72
2018-06-21T02:20:25.312Z,100151.61
2018-06-21T02:22:53.463Z,100147.56
2018-06-21T02:25:21.656Z,100139.70
2018-06-21T02:27:49.802Z,100138.56
2018-06-21T02:30:17.975Z,100133.14
2018-06-21T02:32:46.155Z,100125.02
2018-06-21T02:35:14.319Z,100123.91
2018-06-21T02:37:42.497Z,100116.86
2018-06-21T02:40:10.667Z,100112.78
2018-06-21T02:42:38.837Z,100124.12
2018-06-21T02:45:07.007Z,100131.11
2018-06-21T02:47:35.182Z,100128.44
2018-06-21T02:50:03.366Z,100127.84
2018-06-21T02:52:32.760Z,100123.54
2018-06-21T02:55:00.927Z,100124.58
2018-06-21T02:57:29.296Z,100121.08
2018-06-21T02:59:57.520Z,100121.34
2018-06-21T03:02:25.737Z,100124.32
2018-06-21T03:04:53.911Z,100118.65
2018-06-21T03:07:22.096Z,100117.82
2018-06-21T03:09:50.260Z,100121.33
2018-06-21T03:12:23.179Z,100115.37
2018-06-21T03:14:52.327Z,100117.27
2018-06-21T03:17:20.532Z,100116.45
2018-06-21T03:19:48.727Z,100116.98
2018-06-21T03:22:16.911Z,100122.69
2018-06-21T03:24:45.089Z,100125.94
2018-06-21T03:27:13.258Z,100125.69
2018-06-21T03:29:41.467Z,100127.03
2018-06-21T03:32:09.960Z,100134.61
2018-06-21T03:34:38.337Z,100128.41
2018-06-21T03:37:06.515Z,100140.57
2018-06-21T03:39:34.707Z,100132.47
2018-06-21T03:42:02.874Z,100126.30
2018-06-21T03:44:31.044Z,100129.27
2018-06-21T03:46:59.223Z,100128.72
2018-06-21T03:49:27.382Z,100138.95
2018-06-21T03:51:55.547Z,100133.31
2018-06-21T03:54:23.702Z,100130.89
2018-06-21T03:56:51.856Z,100126.59
2018-06-21T03:59:20.019Z,100122.59
2018-06-21T04:01:48.214Z,100119.34
2018-06-21T04:04:16.403Z,100117.48
2018-06-21T04:06:44.574Z,100114.51
2018-06-21T04:09:12.978Z,100120.18
2018-06-21T04:11:41.178Z,100114.25
2018-06-21T04:14:09.347Z,100109.39
2018-06-21T04:16:37.995Z,100103.44
2018-06-21T04:19:06.239Z,100099.45
2018-06-21T04:21:34.443Z,100103.25
2018-06-21T04:24:02.749Z,100091.89
2018-06-21T04:26:30.919Z,100098.66
2018-06-21T04:28:59.098Z,100102.99
2018-06-21T04:31:27.271Z,100113.27
2018-06-21T04:33:55.443Z,100114.63
2018-06-21T04:36:24.146Z,100113.55
2018-06-21T04:38:52.306Z,100113.84
2018-06-21T04:41:20.479Z,100117.34
2018-06-21T04:43:48.659Z,100118.69
2018-06-21T04:46:16.820Z,100110.84
2018-06-21T04:48:45.427Z,100116.80
2018-06-21T04:51:13.691Z,100126.78
2018-06-21T04:53:41.891Z,100116.81
2018-06-21T04:56:10.062Z,100118.69
2018-06-21T04:58:38.223Z,100128.72
2018-06-21T05:01:06.903Z,100125.19
2018-06-21T05:03:35.056Z,100116.80
2018-06-21T05:06:03.228Z,100122.22
2018-06-21T05:08:31.391Z,100123.29
2018-06-21T05:10:59.543Z,100114.10
2018-06-21T05:13:27.715Z,100119.48
2018-06-21T05:15:55.936Z,100113.84
2018-06-21T05:18:24.108Z,100116.27
2018-06-21T05:20:53.320Z,100120.33
2018-06-21T05:23:21.475Z,100120.05
2018-06-21T05:25:49.638Z,100124.11
2018-06-21T05:28:17.850Z,100126.55
2018-06-21T05:30:46.003Z,100126.29
2018-06-21T05:33:14.303Z,100123.02
2018-06-21T05:35:42.476Z,100117.34
2018-06-21T05:38:10.667Z,100118.95
2018-06-21T05:40:38.854Z,100120.05
2018-06-21T05:43:07.035Z,100128.42
2018-06-21T05:45:35.480Z,100112.73
2018-06-21T05:48:04.351Z,100118.16
2018-06-21T05:50:33.607Z,100113.79
2018-06-21T05:53:02.034Z,100110.55
2018-06-21T05:55:31.169Z,100117.30
2018-06-21T05:57:59.606Z,100121.06
2018-06-21T06:00:27.873Z,100128.04
2018-06-21T06:02:56.167Z,100139.09
2018-06-21T06:05:24.335Z,100121.19
2018-06-21T06:07:52.547Z,100127.38
2018-06-21T06:10:21.403Z,100128.71
2018-06-21T06:12:49.611Z,100124.87
2018-06-21T06:15:17.794Z,100128.42
2018-06-21T06:17:46.020Z,100126.80
2018-06-21T06:20:14.196Z,100132.73
2018-06-21T06:22:42.399Z,100134.66
2018-06-21T06:25:10.575Z,100138.16
2018-06-21T06:27:38.762Z,100134.08
2018-06-21T06:30:07.451Z,100132.40
2018-06-21T06:32:35.659Z,100141.84
2018-06-21T06:35:03.843Z,100137.23
2018-06-21T06:37:32.042Z,100137.98
2018-06-21T06:40:00.252Z,100136.31
2018-06-21T06:42:28.435Z,100133.31
2018-06-21T06:44:56.630Z,100142.76
2018-06-21T06:47:25.056Z,100149.17
2018-06-21T06:49:53.255Z,100152.91
2018-06-21T06:52:21.459Z,100166.13
2018-06-21T06:54:49.701Z,100169.09
2018-06-21T06:57:17.878Z,100172.31
2018-06-21T06:59:46.093Z,100170.53
2018-06-21T07:02:14.292Z,100173.94
2018-06-21T07:04:42.484Z,100176.14
2018-06-21T07:07:10.695Z,100173.28
2018-06-21T07:09:38.852Z,100177.59
2018-06-21T07:12:07.058Z,100179.84
2018-06-21T07:14:35.247Z,100188.22
2018-06-21T07:17:03.446Z,100182.54
2018-06-21T07:19:31.623Z,100182.84
2018-06-21T07:21:59.815Z,100189.56
2018-06-21T07:24:27.991Z,100195.48
2018-06-21T07:26:56.175Z,100197.66
2018-06-21T07:29:24.346Z,100195.51
2018-06-21T07:31:52.534Z,100201.45
2018-06-21T07:34:20.711Z,100202.87
2018-06-21T07:36:48.879Z,100208.25
2018-06-21T07:39:17.061Z,100200.95
2018-06-21T07:41:45.239Z,100210.97
2018-06-21T07:44:13.411Z,100217.92
2018-06-21T07:46:41.579Z,100217.17
2018-06-21T07:49:09.754Z,100223.14
2018-06-21T07:51:37.919Z,100226.97
2018-06-21T07:54:06.099Z,100224.66
2018-06-21T07:56:34.285Z,100225.32
2018-06-21T07:59:02.483Z,100225.67
2018-06-21T08:01:30.660Z,100229.81
2018-06-21T08:03:58.819Z,100229.28
2018-06-21T08:06:27.011Z,100229.30
2018-06-21T08:08:55.154Z,100230.92
2018-06-21T08:11:23.316Z,100233.34
2018-06-21T08:13:51.470Z,100227.11
2018-06-21T08:16:19.643Z,100241.99
2018-06-21T08:18:47.801Z,100238.19
2018-06-21T08:21:15.950Z,100236.33
2018-06-21T08:23:44.134Z,100257.41
2018-06-21T08:26:12.303Z,100259.80
2018-06-21T08:28:40.508Z,100264.77
2018-06-21T08:31:08.770Z,100275.66
2018-06-21T08:33:36.951Z,100278.41
2018-06-21T08:36:05.119Z,100278.16
2018-06-21T08:38:33.303Z,100267.14
2018-06-21T08:41:01.474Z,100287.19
2018-06-21T08:43:29.646Z,100296.38
2018-06-21T08:45:57.832Z,100310.34
2018-06-21T08:48:25.986Z,100314.77
2018-06-21T08:50:54.175Z,100321.62
2018-06-21T08:53:22.505Z,100330.02
2018-06-21T08:55:50.658Z,100328.97
2018-06-21T08:58:18.890Z,100317.86
2018-06-21T09:00:47.002Z,100318.44
2018-06-21T09:03:15.202Z,100325.19
2018-06-21T09:05:43.363Z,100334.11
2018-06-21T09:08:11.515Z,100339.26
2018-06-21T09:10:39.699Z,100351.17
2018-06-21T09:13:07.874Z,100348.19
2018-06-21T09:15:36.084Z,100356.58
2018-06-21T09:18:04.251Z,100363.89
2018-06-21T09:20:32.435Z,100357.09
2018-06-21T09:23:00.602Z,100361.19
2018-06-21T09:25:28.759Z,100361.76
2018-06-21T09:27:56.930Z,100365.01
2018-06-21T09:30:25.095Z,100364.72
2018-06-21T09:32:53.265Z,100372.06
2018-06-21T09:35:21.424Z,100354.96
2018-06-21T09:37:54.919Z,100377.44
2018-06-21T09:40:28.428Z,100379.09
2018-06-21T09:43:01.799Z,100372.87
2018-06-21T09:45:35.236Z,100379.37
2018-06-21T09:48:08.683Z,100382.58
2018-06-21T09:50:36.838Z,100384.48
2018-06-21T09:53:05.021Z,100386.61
2018-06-21T09:55:33.195Z,100392.88
2018-06-21T09:58:01.387Z,100393.15
2018-06-21T10:00:34.774Z,100400.50
2018-06-21T10:03:02.938Z,100401.53
2018-06-21T10:05:31.115Z,100386.86
2018-06-21T10:07:59.303Z,100405.78
2018-06-21T10:10:27.466Z,100406.40
2018-06-21T10:12:55.630Z,100404.14
2018-06-21T10:15:23.804Z,100401.39
2018-06-21T10:17:51.986Z,100405.00
2018-06-21T10:20:20.158Z,100411.23
2018-06-21T10:22:48.314Z,100411.64
2018-06-21T10:25:16.470Z,100419.91
2018-06-21T10:27:44.648Z,100432.94
2018-06-21T10:30:12.814Z,100432.99
2018-06-21T10:32:40.974Z,100442.47
2018-06-21T10:35:09.165Z,100447.95
2018-06-21T10:37:37.319Z,100449.01
2018-06-21T10:40:05.503Z,100454.52
2018-06-21T10:42:33.678Z,100445.27
2018-06-21T10:45:01.828Z,100445.78
2018-06-21T10:47:29.994Z,100461.08
2018-06-21T10:49:58.154Z,100470.66
2018-06-21T10:52:26.323Z,100457.57
2018-06-21T10:54:54.495Z,100470.07
2018-06-21T10:57:22.659Z,100462.09
2018-06-21T10:59:50.819Z,100464.91
2018-06-21T11:02:19.040Z,100462.83
2018-06-21T11:04:47.206Z,100464.59
2018-06-21T11:07:15.491Z,100470.19
2018-06-21T11:09:43.666Z,100471.22
2018-06-21T11:12:11.833Z,100467.20
2018-06-21T11:14:40.007Z,100474.58
2018-06-21T11:17:08.175Z,100503.41
2018-06-21T11:19:36.352Z,100483.08
2018-06-21T11:22:04.507Z,100477.46
2018-06-21T11:24:32.675Z,100487.81
2018-06-21T11:27:00.886Z,100466.58
2018-06-21T11:29:29.043Z,100497.46
2018-06-21T11:31:57.199Z,100507.77
2018-06-21T11:34:25.375Z,100510.52
2018-06-21T11:36:53.530Z,100508.45
2018-06-21T11:39:21.719Z,100504.42
2018-06-21T11:41:49.894Z,100507.11
2018-06-21T11:44:18.055Z,100491.98
2018-06-21T11:46:46.267Z,100518.45
2018-06-21T11:49:14.411Z,100512.63
2018-06-21T11:51:42.582Z,100508.20
2018-06-21T11:54:10.733Z,100517.67
2018-06-21T11:56:38.901Z,100511.89
2018-06-21T11:59:07.068Z,100525.91
2018-06-21T12:01:35.299Z,100526.81
2018-06-21T12:04:03.463Z,100524.09
2018-06-21T12:06:31.742Z,100518.00
2018-06-21T12:08:59.901Z,100548.50
2018-06-21T12:11:28.070Z,100548.22
2018-06-21T12:13:56.239Z,100541.22
2018-06-21T12:16:24.403Z,100534.53
2018-06-21T12:18:52.567Z,100545.41
2018-06-21T12:21:20.735Z,100551.04
2018-06-21T12:23:48.903Z,100540.85
2018-06-21T12:26:17.106Z,100540.91
2018-06-21T12:28:45.271Z,100546.33
2018-06-21T12:31:13.423Z,100546.84
2018-06-21T12:33:41.626Z,100549.29
2018-06-21T12:36:09.803Z,100555.52
2018-06-21T12:38:37.966Z,100557.09
2018-06-21T12:41:06.147Z,100565.45
2018-06-21T12:43:34.314Z,100566.14
2018-06-21T12:46:02.463Z,100559.69
2018-06-21T12:48:30.642Z,100573.46
2018-06-21T12:50:58.786Z,100574.66
2018-06-21T12:53:26.959Z,100576.07
2018-06-21T12:55:55.122Z,100571.75
2018-06-21T12:58:23.319Z,100579.00
2018-06-21T13:00:51.487Z,100580.42
2018-06-21T13:03:19.655Z,100573.64
2018-06-21T13:05:47.822Z,100574.44
2018-06-21T13:09:24.439Z,100582.01
2018-06-21T13:12:18.407Z,100591.02
2018-06-21T13:14:46.602Z,100592.95
2018-06-21T13:17:14.782Z,100603.30
2018-06-21T13:19:42.954Z,100599.78
2018-06-21T13:22:11.129Z,100597.45
2018-06-21T13:24:39.311Z,100600.47
2018-06-21T13:27:07.512Z,100602.36
2018-06-21T13:29:35.933Z,100606.66
2018-06-21T13:32:04.115Z,100604.01
2018-06-21T13:34:32.288Z,100606.23
2018-06-21T13:37:00.502Z,100617.64
2018-06-21T13:39:28.635Z,100610.02
2018-06-21T13:41:56.818Z,100624.14
2018-06-21T13:44:24.982Z,100607.33
2018-06-21T13:46:53.150Z,100625.48
2018-06-21T13:49:21.691Z,100635.80
2018-06-21T13:51:49.882Z,100627.64
2018-06-21T13:54:18.050Z,100640.98
2018-06-21T13:56:47.355Z,100622.03
2018-06-21T13:59:16.195Z,100631.52
2018-06-21T14:01:44.327Z,100640.69
2018-06-21T14:04:12.664Z,100652.58
2018-06-21T14:06:40.943Z,100648.24
2018-06-21T14:09:10.959Z,100649.38
2018-06-21T14:11:39.154Z,100650.99
2018-06-21T14:14:07.370Z,100654.52
2018-06-21T14:16:35.877Z,100654.25
2018-06-21T14:19:04.084Z,100655.06
2018-06-21T14:21:32.325Z,100665.38
2018-06-21T14:24:00.495Z,100657.50
2018-06-21T14:26:28.661Z,100658.55
2018-06-21T14:28:56.970Z,100654.80
2018-06-21T14:31:25.514Z,100666.52
2018-06-21T14:33:54.100Z,100681.00
2018-06-21T14:36:22.299Z,100684.32
2018-06-21T14:38:50.454Z,100678.20
2018-06-21T14:41:18.610Z,100685.78
2018-06-21T14:43:46.766Z,100681.45
2018-06-21T14:46:14.938Z,100674.92
2018-06-21T14:48:43.103Z,100689.05
2018-06-21T14:51:11.283Z,100693.11
2018-06-21T14:53:39.477Z,100687.92
2018-06-21T14:56:07.603Z,100703.17
2018-06-21T14:58:35.770Z,100707.39
2018-06-21T15:01:03.959Z,100702.45
2018-06-21T15:03:32.138Z,100701.59
2018-06-21T15:06:00.419Z,100700.03
2018-06-21T15:08:28.587Z,100702.68
2018-06-21T15:10:56.921Z,100708.15
2018-06-21T15:13:25.096Z,100701.82
2018-06-21T15:15:53.268Z,100700.09
2018-06-21T15:18:21.428Z,100698.30
2018-06-21T15:20:49.590Z,100701.94
2018-06-21T15:23:17.745Z,100712.41
2018-06-21T15:25:45.919Z,100712.09
2018-06-21T15:28:14.098Z,100719.00
2018-06-21T15:30:42.283Z,100716.94
2018-06-21T15:33:10.439Z,100715.03
2018-06-21T15:35:38.594Z,100715.25
2018-06-21T15:38:06.777Z,100719.03
2018-06-21T15:40:34.962Z,100714.35
2018-06-21T15:43:03.142Z,100724.41
2018-06-21T15:45:31.419Z,100726.58
2018-06-21T15:47:59.540Z,100727.39
2018-06-21T15:50:27.694Z,100731.21
2018-06-21T15:52:55.900Z,100735.16
2018-06-21T15:55:24.063Z,100746.70
2018-06-21T15:57:52.223Z,100747.97
2018-06-21T16:00:20.379Z,100745.08
2018-06-21T16:02:48.574Z,100752.88
2018-06-21T16:05:16.732Z,100759.88
2018-06-21T16:07:44.895Z,100752.25
2018-06-21T16:10:13.050Z,100743.13
2018-06-21T16:12:41.224Z,100760.58
2018-06-21T16:15:09.398Z,100768.19
2018-06-21T16:17:37.564Z,100769.72
2018-06-21T16:20:05.726Z,100772.59
2018-06-21T16:22:33.891Z,100771.80
2018-06-21T16:25:02.043Z,100781.78
2018-06-21T16:27:30.200Z,100787.47
2018-06-21T16:29:58.380Z,100791.05
2018-06-21T16:32:26.552Z,100784.67
2018-06-21T16:34:54.787Z,100772.80
2018-06-21T16:37:23.020Z,100775.85
2018-06-21T16:39:51.489Z,100789.00
2018-06-21T16:42:19.691Z,100789.87
2018-06-21T16:44:47.948Z,100780.08
2018-06-21T16:47:16.179Z,100788.58
2018-06-21T16:49:44.446Z,100780.41
2018-06-21T16:52:12.881Z,100784.86
2018-06-21T16:54:41.679Z,100777.22
2018-06-21T16:57:09.879Z,100788.90
2018-06-21T16:59:38.047Z,100790.53
2018-06-21T17:02:06.242Z,100786.16
2018-06-21T17:04:34.462Z,100789.03
2018-06-21T17:07:02.691Z,100791.62
2018-06-21T17:09:30.882Z,100790.16
2018-06-21T17:11:59.055Z,100787.00
2018-06-21T17:14:27.238Z,100784.98
2018-06-21T17:16:55.531Z,100783.02
2018-06-21T17:19:23.682Z,100799.47
2018-06-21T17:21:51.902Z,100788.30
2018-06-21T17:24:20.131Z,100798.52
2018-06-21T17:26:48.323Z,100794.28
2018-06-21T17:29:16.549Z,100800.93
2018-06-21T17:31:44.819Z,100804.20
2018-06-21T17:34:12.966Z,100809.45
2018-06-21T17:36:41.553Z,100800.72
2018-06-21T17:39:10.651Z,100806.76
2018-06-21T17:41:38.812Z,100810.66
2018-06-21T17:44:06.982Z,100823.70
2018-06-21T17:46:35.315Z,100814.89
2018-06-21T17:49:03.532Z,100811.43
2018-06-21T17:51:31.773Z,100810.30
2018-06-21T17:53:59.925Z,100812.27
2018-06-21T17:56:28.127Z,100807.09
2018-06-21T17:58:56.299Z,100813.16
2018-06-21T18:01:24.478Z,100825.03
2018-06-21T18:03:52.691Z,100826.29
2018-06-21T18:06:20.936Z,100822.31
2018-06-21T18:08:49.502Z,100823.66
2018-06-21T18:11:17.770Z,100831.42
2018-06-21T18:13:45.987Z,100823.91
2018-06-21T18:16:14.385Z,100827.54
2018-06-21T18:18:42.715Z,100828.75
2018-06-21T18:21:10.920Z,100830.91
2018-06-21T18:23:39.227Z,100842.85
2018-06-21T18:26:07.868Z,100836.03
2018-06-21T18:28:36.114Z,100830.77
2018-06-21T18:31:04.330Z,100833.27
2018-06-21T18:33:32.695Z,100827.36
2018-06-21T18:36:00.945Z,100838.13
2018-06-21T18:38:29.191Z,100843.30
2018-06-21T18:40:57.371Z,100845.73
2018-06-21T18:43:25.560Z,100850.13
2018-06-21T18:45:53.758Z,100852.84
2018-06-21T18:48:22.003Z,100842.19
2018-06-21T18:50:50.465Z,100850.19
2018-06-21T18:53:18.854Z,100854.00
2018-06-21T18:55:47.335Z,100851.53
2018-06-21T18:58:15.603Z,100850.95
2018-06-21T19:00:44.102Z,100850.37
2018-06-21T19:03:12.331Z,100842.64
2018-06-21T19:05:40.531Z,100853.33
2018-06-21T19:08:14.055Z,100853.25
2018-06-21T19:10:47.769Z,100853.89
2018-06-21T19:13:15.803Z,100869.22
2018-06-21T19:15:44.017Z,100867.80
2018-06-21T19:18:12.258Z,100867.92
2018-06-21T19:20:40.467Z,100866.48
2018-06-21T19:23:08.727Z,100872.91
2018-06-21T19:25:36.967Z,100873.21
2018-06-21T19:28:05.063Z,100886.44
2018-06-21T19:30:33.240Z,100877.74
2018-06-21T19:33:01.412Z,100875.42
2018-06-21T19:35:29.591Z,100878.20
2018-06-21T19:37:57.778Z,100893.78
2018-06-21T19:40:25.951Z,100886.78
2018-06-21T19:42:54.163Z,100887.36
2018-06-21T19:45:22.315Z,100899.92
2018-06-21T19:47:50.467Z,100904.45
2018-06-21T19:50:18.639Z,100896.02
2018-06-21T19:52:46.795Z,100902.78
2018-06-21T19:55:16.287Z,100905.86
2018-06-21T19:57:44.459Z,100917.40
2018-06-21T20:00:12.630Z,100908.80
2018-06-21T20:02:46.130Z,100917.69
2018-06-21T20:05:14.303Z,100917.00
2018-06-21T20:07:42.475Z,100916.84
2018-06-21T20:10:10.775Z,100924.75
2018-06-21T20:12:38.983Z,100927.63
2018-06-21T20:15:07.110Z,100927.08
2018-06-21T20:17:35.443Z,100940.35
2018-06-21T20:20:08.926Z,100933.67
2018-06-21T20:22:37.111Z,100937.11
2018-06-21T20:25:05.271Z,100937.25
2018-06-21T20:27:33.429Z,100935.19
2018-06-21T20:30:01.595Z,100943.03
2018-06-21T20:32:29.746Z,100951.28
2018-06-21T20:34:58.053Z,100959.03
2018-06-21T20:37:26.442Z,100956.93
2018-06-21T20:39:54.615Z,100966.56
2018-06-21T20:42:22.779Z,100959.23
2018-06-21T20:44:50.946Z,100968.41
2018-06-21T20:47:19.330Z,100966.97
2018-06-21T20:49:47.607Z,100972.87
2018-06-21T20:52:21.155Z,100962.45
2018-06-21T20:54:49.314Z,100969.15
2018-06-21T20:57:17.472Z,100966.91
2018-06-21T20:59:45.627Z,100978.36
2018-06-21T21:02:13.793Z,100964.39
2018-06-21T21:05:18.548Z,100972.00
2018-06-21T21:07:47.923Z,100969.55
2018-06-21T21:10:17.159Z,100970.11
2018-06-21T21:12:45.286Z,100978.57
2018-06-21T21:15:14.266Z,100975.66
2018-06-21T21:17:42.578Z,100978.77
2018-06-21T21:20:11.047Z,100977.00
2018-06-21T21:22:40.060Z,100978.04
2018-06-21T21:25:08.198Z,100978.27
2018-06-21T21:27:36.348Z,100986.59
2018-06-21T21:30:06.847Z,100988.64
2018-06-21T21:32:35.129Z,100986.80
2018-06-21T21:35:03.275Z,100991.54
2018-06-21T21:37:31.387Z,100976.09
2018-06-21T21:40:01.694Z,100988.25
2018-06-21T21:42:30.962Z,100992.58
2018-06-21T21:44:59.136Z,100996.70
2018-06-21T21:47:27.303Z,100991.89
2018-06-21T21:49:55.590Z,100991.89
2018-06-21T21:52:23.766Z,101000.23
2018-06-21T21:54:51.934Z,101002.31
2018-06-21T21:57:20.231Z,101005.73
2018-06-21T21:59:49.207Z,100988.95
2018-06-21T22:02:17.786Z,100998.68
2018-06-21T22:04:46.274Z,100997.55
2018-06-21T22:07:14.547Z,100996.09
2018-06-21T22:09:42.830Z,101003.95
2018-06-21T22:12:10.964Z,100997.80
2018-06-21T22:14:39.121Z,101004.19
2018-06-21T22:17:07.261Z,101000.06
2018-06-21T22:19:35.390Z,100998.30
2018-06-21T22:22:03.515Z,101008.89
2018-06-21T22:24:31.654Z,100996.47
2018-06-21T22:26:59.794Z,100997.39
2018-06-21T22:29:27.934Z,101005.22
2018-06-21T22:31:56.075Z,100999.14
2018-06-21T22:34:24.202Z,100994.20
2018-06-21T22:36:52.359Z,100991.41
2018-06-21T22:39:20.490Z,100995.73
2018-06-21T22:41:48.622Z,100987.82
2018-06-21T22:44:16.747Z,101003.02
2018-06-21T22:46:44.862Z,100995.11
2018-06-21T22:49:13.008Z,100995.80
2018-06-21T22:51:41.147Z,100998.81
2018-06-21T22:54:09.272Z,100994.45
2018-06-21T22:56:37.404Z,100985.92
2018-06-21T22:59:05.527Z,100993.22
2018-06-21T23:01:33.666Z,100986.33
2018-06-21T23:04:01.807Z,100995.55
2018-06-21T23:06:29.942Z,100988.89
2018-06-21T23:08:58.084Z,100991.36
2018-06-21T23:11:26.223Z,100994.03
2018-06-21T23:13:54.354Z,100993.31
2018-06-21T23:16:22.495Z,100988.27
2018-06-21T23:19:01.952Z,100984.76
2018-06-21T23:21:30.077Z,100993.69
2018-06-21T23:23:58.215Z,100994.52
2018-06-21T23:26:26.338Z,100993.89
2018-06-21T23:28:54.480Z,100989.05
2018-06-21T23:31:22.607Z,100993.14
2018-06-21T23:33:50.744Z,100993.42
2018-06-21T23:36:18.887Z,100995.17
2018-06-21T23:38:47.025Z,100997.41
2018-06-21T23:41:15.164Z,100997.63
2018-06-21T23:43:43.292Z,100999.59
2018-06-21T23:46:11.435Z,100990.42
2018-06-21T23:48:39.582Z,100979.71
2018-06-21T23:51:07.719Z,100991.36
2018-06-21T23:53:35.870Z,100988.44
2018-06-21T23:56:04.001Z,100988.56
2018-06-21T23:58:32.150Z,100987.63
